Terminal Aerodrome Forecast
Issued by NWS Corpus Christi, TX

Home | Current Version | Previous Version | Text Only | Print | Product List | Glossary On
Versions: 1 2 3 4 5 6 7 8 9 10 11 12 13 14 15
000
FTUS44 KCRP 271700
TAFVCT
TAF
KVCT 271720Z 2718/2818 03014KT P6SM SCT050
     FM272100 07014KT P6SM VCTS SCT050CB
     FM280000 09010KT P6SM FEW250
     FM281000 09005KT P6SM VCSH BKN035
     FM281200 09008KT P6SM VCTS BKN035CB=

USA.gov is the U.S. government's official web portal to all federal, state and local government web resources and services.